sensor_id;sensor_type;location;lat;lon;timestamp;P1;durP1;ratioP1;P2;durP2;ratioP2
12228;SDS011;6177;52.402;9.800;2024-03-25T00:00:16;5.30;;;1.90;;
12228;SDS011;6177;52.402;9.800;2024-03-25T00:02:42;5.13;;;2.00;;
12228;SDS011;6177;52.402;9.800;2024-03-25T00:05:08;5.17;;;2.17;;
12228;SDS011;6177;52.402;9.800;2024-03-25T00:07:39;4.90;;;1.67;;
12228;SDS011;6177;52.402;9.800;2024-03-25T00:10:05;2.13;;;1.83;;
12228;SDS011;6177;52.402;9.800;2024-03-25T00:12:37;3.10;;;2.00;;
12228;SDS011;6177;52.402;9.800;2024-03-25T00:15:02;3.90;;;1.40;;
12228;SDS011;6177;52.402;9.800;2024-03-25T00:17:29;4.63;;;1.90;;
12228;SDS011;6177;52.402;9.800;2024-03-25T00:19:54;3.67;;;1.57;;
12228;SDS011;6177;52.402;9.800;2024-03-25T00:22:20;3.00;;;2.03;;
12228;SDS011;6177;52.402;9.800;2024-03-25T00:24:47;2.90;;;1.53;;
12228;SDS011;6177;52.402;9.800;2024-03-25T00:27:13;4.10;;;2.07;;
12228;SDS011;6177;52.402;9.800;2024-03-25T00:29:39;1.50;;;1.30;;
12228;SDS011;6177;52.402;9.800;2024-03-25T00:32:05;2.10;;;1.17;;
12228;SDS011;6177;52.402;9.800;2024-03-25T00:34:31;3.70;;;1.57;;
12228;SDS011;6177;52.402;9.800;2024-03-25T00:36:57;2.77;;;1.70;;
12228;SDS011;6177;52.402;9.800;2024-03-25T00:39:23;4.03;;;1.10;;
12228;SDS011;6177;52.402;9.800;2024-03-25T00:41:49;3.30;;;1.20;;
12228;SDS011;6177;52.402;9.800;2024-03-25T00:44:15;4.00;;;1.60;;
12228;SDS011;6177;52.402;9.800;2024-03-25T00:46:40;4.20;;;2.40;;
12228;SDS011;6177;52.402;9.800;2024-03-25T00:49:07;2.87;;;1.20;;
12228;SDS011;6177;52.402;9.800;2024-03-25T00:51:33;6.47;;;1.70;;
12228;SDS011;6177;52.402;9.800;2024-03-25T00:53:59;1.53;;;1.30;;
12228;SDS011;6177;52.402;9.800;2024-03-25T00:56:25;2.33;;;1.40;;
12228;SDS011;6177;52.402;9.800;2024-03-25T00:58:52;2.70;;;1.80;;
12228;SDS011;6177;52.402;9.800;2024-03-25T01:01:17;3.53;;;2.00;;
12228;SDS011;6177;52.402;9.800;2024-03-25T01:03:43;3.00;;;2.10;;
12228;SDS011;6177;52.402;9.800;2024-03-25T01:06:08;6.17;;;2.40;;
12228;SDS011;6177;52.402;9.800;2024-03-25T01:08:34;2.13;;;1.93;;
12228;SDS011;6177;52.402;9.800;2024-03-25T01:10:59;4.43;;;2.37;;
12228;SDS011;6177;52.402;9.800;2024-03-25T01:13:25;4.03;;;2.60;;
12228;SDS011;6177;52.402;9.800;2024-03-25T01:15:51;3.43;;;2.50;;
12228;SDS011;6177;52.402;9.800;2024-03-25T01:18:17;4.30;;;2.03;;
12228;SDS011;6177;52.402;9.800;2024-03-25T01:20:43;7.47;;;2.60;;
12228;SDS011;6177;52.402;9.800;2024-03-25T01:23:09;5.50;;;2.37;;
12228;SDS011;6177;52.402;9.800;2024-03-25T01:25:35;5.80;;;2.60;;
12228;SDS011;6177;52.402;9.800;2024-03-25T01:28:01;5.20;;;2.37;;
12228;SDS011;6177;52.402;9.800;2024-03-25T01:30:27;7.50;;;2.47;;
12228;SDS011;6177;52.402;9.800;2024-03-25T01:32:55;3.53;;;2.17;;
12228;SDS011;6177;52.402;9.800;2024-03-25T01:35:20;5.27;;;1.97;;
12228;SDS011;6177;52.402;9.800;2024-03-25T01:37:46;3.10;;;1.97;;
12228;SDS011;6177;52.402;9.800;2024-03-25T01:40:11;4.87;;;2.47;;
12228;SDS011;6177;52.402;9.800;2024-03-25T01:42:37;4.33;;;2.27;;
12228;SDS011;6177;52.402;9.800;2024-03-25T01:45:03;4.90;;;1.83;;
12228;SDS011;6177;52.402;9.800;2024-03-25T01:47:30;4.33;;;2.90;;
12228;SDS011;6177;52.402;9.800;2024-03-25T01:49:58;3.90;;;2.27;;
12228;SDS011;6177;52.402;9.800;2024-03-25T01:52:23;4.60;;;2.77;;
12228;SDS011;6177;52.402;9.800;2024-03-25T01:54:51;5.97;;;2.73;;
12228;SDS011;6177;52.402;9.800;2024-03-25T01:57:17;8.00;;;2.83;;
12228;SDS011;6177;52.402;9.800;2024-03-25T01:59:43;5.33;;;3.33;;
12228;SDS011;6177;52.402;9.800;2024-03-25T02:02:09;4.73;;;2.27;;
12228;SDS011;6177;52.402;9.800;2024-03-25T02:04:36;8.07;;;2.50;;
12228;SDS011;6177;52.402;9.800;2024-03-25T02:07:03;6.70;;;2.90;;
12228;SDS011;6177;52.402;9.800;2024-03-25T02:09:29;7.13;;;2.87;;
12228;SDS011;6177;52.402;9.800;2024-03-25T02:11:54;4.47;;;2.40;;
12228;SDS011;6177;52.402;9.800;2024-03-25T02:14:20;3.80;;;2.50;;
12228;SDS011;6177;52.402;9.800;2024-03-25T02:16:46;8.90;;;2.50;;
12228;SDS011;6177;52.402;9.800;2024-03-25T02:19:11;4.53;;;1.70;;
12228;SDS011;6177;52.402;9.800;2024-03-25T02:21:38;6.00;;;2.40;;
12228;SDS011;6177;52.402;9.800;2024-03-25T02:24:04;8.27;;;2.90;;
12228;SDS011;6177;52.402;9.800;2024-03-25T02:26:31;9.67;;;2.60;;
12228;SDS011;6177;52.402;9.800;2024-03-25T02:28:57;6.63;;;2.80;;
12228;SDS011;6177;52.402;9.800;2024-03-25T02:31:23;4.60;;;2.40;;
12228;SDS011;6177;52.402;9.800;2024-03-25T02:33:48;5.57;;;2.40;;
12228;SDS011;6177;52.402;9.800;2024-03-25T02:36:13;5.20;;;2.33;;
12228;SDS011;6177;52.402;9.800;2024-03-25T02:38:39;4.57;;;1.97;;
12228;SDS011;6177;52.402;9.800;2024-03-25T02:41:05;5.07;;;2.40;;
12228;SDS011;6177;52.402;9.800;2024-03-25T02:43:31;5.53;;;2.67;;
12228;SDS011;6177;52.402;9.800;2024-03-25T02:45:56;5.10;;;2.07;;
12228;SDS011;6177;52.402;9.800;2024-03-25T02:48:22;5.60;;;2.70;;
12228;SDS011;6177;52.402;9.800;2024-03-25T02:50:47;4.40;;;2.27;;
12228;SDS011;6177;52.402;9.800;2024-03-25T02:53:13;5.03;;;2.40;;
12228;SDS011;6177;52.402;9.800;2024-03-25T02:55:38;5.70;;;2.70;;
12228;SDS011;6177;52.402;9.800;2024-03-25T02:58:04;6.03;;;2.53;;
12228;SDS011;6177;52.402;9.800;2024-03-25T03:00:29;3.97;;;2.60;;
12228;SDS011;6177;52.402;9.800;2024-03-25T03:02:55;4.43;;;2.43;;
12228;SDS011;6177;52.402;9.800;2024-03-25T03:05:20;5.23;;;1.97;;
12228;SDS011;6177;52.402;9.800;2024-03-25T03:07:46;4.07;;;1.73;;
12228;SDS011;6177;52.402;9.800;2024-03-25T03:10:11;6.67;;;2.10;;
12228;SDS011;6177;52.402;9.800;2024-03-25T03:12:37;2.50;;;1.60;;
12228;SDS011;6177;52.402;9.800;2024-03-25T03:15:03;5.33;;;2.27;;
12228;SDS011;6177;52.402;9.800;2024-03-25T03:17:28;4.93;;;2.43;;
12228;SDS011;6177;52.402;9.800;2024-03-25T03:19:54;4.23;;;2.27;;
12228;SDS011;6177;52.402;9.800;2024-03-25T03:22:19;4.57;;;2.17;;
12228;SDS011;6177;52.402;9.800;2024-03-25T03:24:45;3.60;;;2.33;;
12228;SDS011;6177;52.402;9.800;2024-03-25T03:27:11;3.80;;;1.80;;
12228;SDS011;6177;52.402;9.800;2024-03-25T03:29:37;5.50;;;2.53;;
12228;SDS011;6177;52.402;9.800;2024-03-25T03:32:04;6.10;;;2.03;;
12228;SDS011;6177;52.402;9.800;2024-03-25T03:34:29;2.10;;;1.90;;
12228;SDS011;6177;52.402;9.800;2024-03-25T03:36:55;3.90;;;2.07;;
12228;SDS011;6177;52.402;9.800;2024-03-25T03:39:20;3.17;;;1.53;;
12228;SDS011;6177;52.402;9.800;2024-03-25T03:41:46;4.03;;;2.27;;
12228;SDS011;6177;52.402;9.800;2024-03-25T03:44:11;4.90;;;2.23;;
12228;SDS011;6177;52.402;9.800;2024-03-25T03:46:39;3.50;;;1.63;;
12228;SDS011;6177;52.402;9.800;2024-03-25T03:49:05;5.90;;;2.00;;
12228;SDS011;6177;52.402;9.800;2024-03-25T03:51:31;3.03;;;1.90;;
12228;SDS011;6177;52.402;9.800;2024-03-25T03:53:56;4.27;;;2.10;;
12228;SDS011;6177;52.402;9.800;2024-03-25T03:56:22;6.80;;;2.30;;
12228;SDS011;6177;52.402;9.800;2024-03-25T03:58:48;5.87;;;2.20;;
12228;SDS011;6177;52.402;9.800;2024-03-25T04:01:17;4.77;;;2.03;;
12228;SDS011;6177;52.402;9.800;2024-03-25T04:03:44;2.63;;;2.00;;
12228;SDS011;6177;52.402;9.800;2024-03-25T04:06:13;1.93;;;1.83;;
12228;SDS011;6177;52.402;9.800;2024-03-25T04:08:40;3.73;;;2.10;;
12228;SDS011;6177;52.402;9.800;2024-03-25T04:11:06;5.57;;;2.00;;
12228;SDS011;6177;52.402;9.800;2024-03-25T04:13:35;7.00;;;2.10;;
12228;SDS011;6177;52.402;9.800;2024-03-25T04:16:01;4.57;;;2.40;;
12228;SDS011;6177;52.402;9.800;2024-03-25T04:18:28;6.33;;;2.60;;
12228;SDS011;6177;52.402;9.800;2024-03-25T04:20:54;5.17;;;2.10;;
12228;SDS011;6177;52.402;9.800;2024-03-25T04:23:19;4.47;;;2.30;;
12228;SDS011;6177;52.402;9.800;2024-03-25T04:25:45;5.27;;;1.90;;
12228;SDS011;6177;52.402;9.800;2024-03-25T04:28:10;5.73;;;2.20;;
12228;SDS011;6177;52.402;9.800;2024-03-25T04:30:36;5.53;;;1.90;;
12228;SDS011;6177;52.402;9.800;2024-03-25T04:33:01;3.57;;;1.90;;
12228;SDS011;6177;52.402;9.800;2024-03-25T04:35:27;3.17;;;2.00;;
12228;SDS011;6177;52.402;9.800;2024-03-25T04:37:52;3.23;;;2.20;;
12228;SDS011;6177;52.402;9.800;2024-03-25T04:40:19;4.27;;;2.10;;
12228;SDS011;6177;52.402;9.800;2024-03-25T04:42:45;3.33;;;2.20;;
12228;SDS011;6177;52.402;9.800;2024-03-25T04:45:10;5.70;;;1.90;;
12228;SDS011;6177;52.402;9.800;2024-03-25T04:47:37;5.00;;;1.77;;
12228;SDS011;6177;52.402;9.800;2024-03-25T04:50:03;3.13;;;1.90;;
12228;SDS011;6177;52.402;9.800;2024-03-25T04:52:29;6.13;;;1.83;;
12228;SDS011;6177;52.402;9.800;2024-03-25T04:54:54;8.13;;;2.27;;
12228;SDS011;6177;52.402;9.800;2024-03-25T04:57:20;8.50;;;2.20;;
12228;SDS011;6177;52.402;9.800;2024-03-25T04:59:45;6.80;;;2.67;;
12228;SDS011;6177;52.402;9.800;2024-03-25T05:02:12;5.47;;;2.43;;
12228;SDS011;6177;52.402;9.800;2024-03-25T05:04:39;5.90;;;2.27;;
12228;SDS011;6177;52.402;9.800;2024-03-25T05:07:05;7.30;;;2.83;;
12228;SDS011;6177;52.402;9.800;2024-03-25T05:09:30;11.63;;;2.70;;
12228;SDS011;6177;52.402;9.800;2024-03-25T05:11:56;9.37;;;3.30;;
12228;SDS011;6177;52.402;9.800;2024-03-25T05:14:22;6.93;;;3.27;;
12228;SDS011;6177;52.402;9.800;2024-03-25T05:16:47;6.23;;;2.70;;
12228;SDS011;6177;52.402;9.800;2024-03-25T05:19:14;7.47;;;2.87;;
12228;SDS011;6177;52.402;9.800;2024-03-25T05:21:40;10.53;;;3.00;;
12228;SDS011;6177;52.402;9.800;2024-03-25T05:24:06;9.37;;;3.27;;
12228;SDS011;6177;52.402;9.800;2024-03-25T05:26:31;8.97;;;3.27;;
12228;SDS011;6177;52.402;9.800;2024-03-25T05:28:57;8.57;;;3.13;;
12228;SDS011;6177;52.402;9.800;2024-03-25T05:31:23;8.10;;;3.47;;
12228;SDS011;6177;52.402;9.800;2024-03-25T05:33:49;6.00;;;3.07;;
12228;SDS011;6177;52.402;9.800;2024-03-25T05:36:15;10.83;;;2.93;;
12228;SDS011;6177;52.402;9.800;2024-03-25T05:38:40;7.13;;;2.80;;
12228;SDS011;6177;52.402;9.800;2024-03-25T05:41:09;3.10;;;2.23;;
12228;SDS011;6177;52.402;9.800;2024-03-25T05:43:35;5.77;;;2.53;;
12228;SDS011;6177;52.402;9.800;2024-03-25T05:46:01;6.53;;;2.77;;
12228;SDS011;6177;52.402;9.800;2024-03-25T05:48:27;6.33;;;1.90;;
12228;SDS011;6177;52.402;9.800;2024-03-25T05:51:03;10.60;;;2.73;;
12228;SDS011;6177;52.402;9.800;2024-03-25T05:53:33;8.13;;;2.40;;
12228;SDS011;6177;52.402;9.800;2024-03-25T05:55:58;11.53;;;3.13;;
12228;SDS011;6177;52.402;9.800;2024-03-25T05:58:27;9.47;;;3.07;;
12228;SDS011;6177;52.402;9.800;2024-03-25T06:00:53;4.30;;;1.73;;
12228;SDS011;6177;52.402;9.800;2024-03-25T06:03:19;9.57;;;3.23;;
12228;SDS011;6177;52.402;9.800;2024-03-25T06:05:45;7.93;;;2.73;;
12228;SDS011;6177;52.402;9.800;2024-03-25T06:08:10;9.37;;;2.80;;
12228;SDS011;6177;52.402;9.800;2024-03-25T06:10:52;7.07;;;2.93;;
12228;SDS011;6177;52.402;9.800;2024-03-25T06:13:18;9.37;;;2.70;;
12228;SDS011;6177;52.402;9.800;2024-03-25T06:15:44;9.23;;;2.67;;
12228;SDS011;6177;52.402;9.800;2024-03-25T06:18:10;6.87;;;2.33;;
12228;SDS011;6177;52.402;9.800;2024-03-25T06:20:36;8.53;;;2.43;;
12228;SDS011;6177;52.402;9.800;2024-03-25T06:23:01;7.67;;;2.50;;
12228;SDS011;6177;52.402;9.800;2024-03-25T06:25:27;7.80;;;2.67;;
12228;SDS011;6177;52.402;9.800;2024-03-25T06:27:53;8.00;;;2.80;;
12228;SDS011;6177;52.402;9.800;2024-03-25T06:30:19;7.37;;;2.60;;
12228;SDS011;6177;52.402;9.800;2024-03-25T06:33:03;9.70;;;2.60;;
12228;SDS011;6177;52.402;9.800;2024-03-25T06:35:47;5.43;;;2.10;;
12228;SDS011;6177;52.402;9.800;2024-03-25T06:38:13;7.27;;;2.50;;
12228;SDS011;6177;52.402;9.800;2024-03-25T06:40:39;7.73;;;3.10;;
12228;SDS011;6177;52.402;9.800;2024-03-25T06:43:05;9.23;;;3.07;;
12228;SDS011;6177;52.402;9.800;2024-03-25T06:45:31;7.20;;;2.70;;
12228;SDS011;6177;52.402;9.800;2024-03-25T06:47:57;8.17;;;2.20;;
12228;SDS011;6177;52.402;9.800;2024-03-25T06:50:25;8.50;;;2.13;;
12228;SDS011;6177;52.402;9.800;2024-03-25T06:52:52;9.10;;;3.03;;
12228;SDS011;6177;52.402;9.800;2024-03-25T06:55:17;3.80;;;2.33;;
12228;SDS011;6177;52.402;9.800;2024-03-25T06:57:47;8.17;;;3.43;;
12228;SDS011;6177;52.402;9.800;2024-03-25T07:00:13;6.37;;;2.90;;
12228;SDS011;6177;52.402;9.800;2024-03-25T07:02:40;8.10;;;2.40;;
12228;SDS011;6177;52.402;9.800;2024-03-25T07:05:06;11.37;;;3.23;;
12228;SDS011;6177;52.402;9.800;2024-03-25T07:07:32;7.83;;;2.93;;
12228;SDS011;6177;52.402;9.800;2024-03-25T07:09:59;7.83;;;2.83;;
12228;SDS011;6177;52.402;9.800;2024-03-25T07:12:25;9.80;;;2.90;;
12228;SDS011;6177;52.402;9.800;2024-03-25T07:14:52;8.80;;;3.47;;
12228;SDS011;6177;52.402;9.800;2024-03-25T07:17:18;7.97;;;2.17;;
12228;SDS011;6177;52.402;9.800;2024-03-25T07:19:43;6.43;;;2.17;;
12228;SDS011;6177;52.402;9.800;2024-03-25T07:22:10;10.20;;;3.10;;
12228;SDS011;6177;52.402;9.800;2024-03-25T07:24:36;7.17;;;3.13;;
12228;SDS011;6177;52.402;9.800;2024-03-25T07:27:01;7.23;;;2.53;;
12228;SDS011;6177;52.402;9.800;2024-03-25T07:29:27;8.27;;;3.07;;
12228;SDS011;6177;52.402;9.800;2024-03-25T07:31:52;9.20;;;2.90;;
12228;SDS011;6177;52.402;9.800;2024-03-25T07:34:18;10.33;;;2.70;;
12228;SDS011;6177;52.402;9.800;2024-03-25T07:36:45;8.13;;;2.50;;
12228;SDS011;6177;52.402;9.800;2024-03-25T07:39:11;8.97;;;3.10;;
12228;SDS011;6177;52.402;9.800;2024-03-25T07:41:36;6.83;;;2.33;;
12228;SDS011;6177;52.402;9.800;2024-03-25T07:44:02;4.83;;;2.43;;
12228;SDS011;6177;52.402;9.800;2024-03-25T07:46:28;6.70;;;2.57;;
12228;SDS011;6177;52.402;9.800;2024-03-25T07:48:55;7.80;;;2.67;;
12228;SDS011;6177;52.402;9.800;2024-03-25T07:51:20;10.50;;;4.00;;
12228;SDS011;6177;52.402;9.800;2024-03-25T07:53:46;7.33;;;2.47;;
12228;SDS011;6177;52.402;9.800;2024-03-25T07:56:11;6.00;;;2.60;;
12228;SDS011;6177;52.402;9.800;2024-03-25T07:58:37;10.07;;;3.63;;
12228;SDS011;6177;52.402;9.800;2024-03-25T08:01:02;9.00;;;2.77;;
12228;SDS011;6177;52.402;9.800;2024-03-25T08:03:28;5.20;;;2.80;;
12228;SDS011;6177;52.402;9.800;2024-03-25T08:05:53;7.93;;;2.63;;
12228;SDS011;6177;52.402;9.800;2024-03-25T08:08:19;6.37;;;2.27;;
12228;SDS011;6177;52.402;9.800;2024-03-25T08:10:45;6.70;;;2.53;;
12228;SDS011;6177;52.402;9.800;2024-03-25T08:13:10;7.63;;;2.37;;
12228;SDS011;6177;52.402;9.800;2024-03-25T08:15:36;8.73;;;2.40;;
12228;SDS011;6177;52.402;9.800;2024-03-25T08:18:02;5.57;;;2.40;;
12228;SDS011;6177;52.402;9.800;2024-03-25T08:20:28;7.60;;;2.90;;
12228;SDS011;6177;52.402;9.800;2024-03-25T08:22:53;6.53;;;2.40;;
12228;SDS011;6177;52.402;9.800;2024-03-25T08:25:19;8.17;;;2.53;;
12228;SDS011;6177;52.402;9.800;2024-03-25T08:27:44;8.67;;;2.73;;
12228;SDS011;6177;52.402;9.800;2024-03-25T08:30:10;6.47;;;2.73;;
12228;SDS011;6177;52.402;9.800;2024-03-25T08:32:36;9.50;;;2.90;;
12228;SDS011;6177;52.402;9.800;2024-03-25T08:35:01;5.33;;;2.60;;
12228;SDS011;6177;52.402;9.800;2024-03-25T08:37:26;8.40;;;2.73;;
12228;SDS011;6177;52.402;9.800;2024-03-25T08:39:52;8.47;;;3.13;;
12228;SDS011;6177;52.402;9.800;2024-03-25T08:42:18;7.80;;;2.47;;
12228;SDS011;6177;52.402;9.800;2024-03-25T08:44:44;7.63;;;2.97;;
12228;SDS011;6177;52.402;9.800;2024-03-25T08:47:09;6.13;;;2.53;;
12228;SDS011;6177;52.402;9.800;2024-03-25T08:49:35;6.27;;;2.83;;
12228;SDS011;6177;52.402;9.800;2024-03-25T08:52:00;9.60;;;2.83;;
12228;SDS011;6177;52.402;9.800;2024-03-25T08:54:26;7.13;;;2.63;;
12228;SDS011;6177;52.402;9.800;2024-03-25T08:56:51;7.67;;;2.23;;
12228;SDS011;6177;52.402;9.800;2024-03-25T08:59:17;7.63;;;2.80;;
12228;SDS011;6177;52.402;9.800;2024-03-25T09:01:42;7.80;;;2.70;;
12228;SDS011;6177;52.402;9.800;2024-03-25T09:04:08;6.60;;;2.63;;
12228;SDS011;6177;52.402;9.800;2024-03-25T09:06:34;6.03;;;2.10;;
12228;SDS011;6177;52.402;9.800;2024-03-25T09:09:01;5.90;;;2.10;;
12228;SDS011;6177;52.402;9.800;2024-03-25T09:11:45;8.73;;;2.90;;
12228;SDS011;6177;52.402;9.800;2024-03-25T09:14:11;4.77;;;2.23;;
12228;SDS011;6177;52.402;9.800;2024-03-25T09:16:37;4.97;;;2.33;;
12228;SDS011;6177;52.402;9.800;2024-03-25T09:19:02;8.43;;;2.27;;
12228;SDS011;6177;52.402;9.800;2024-03-25T09:21:30;5.43;;;2.17;;
12228;SDS011;6177;52.402;9.800;2024-03-25T09:23:56;4.23;;;2.00;;
12228;SDS011;6177;52.402;9.800;2024-03-25T09:26:23;3.80;;;2.23;;
12228;SDS011;6177;52.402;9.800;2024-03-25T09:28:49;6.33;;;2.37;;
12228;SDS011;6177;52.402;9.800;2024-03-25T09:31:14;5.87;;;2.00;;
12228;SDS011;6177;52.402;9.800;2024-03-25T09:33:41;8.03;;;2.50;;
12228;SDS011;6177;52.402;9.800;2024-03-25T09:36:09;7.63;;;2.60;;
12228;SDS011;6177;52.402;9.800;2024-03-25T09:38:36;5.60;;;2.20;;
12228;SDS011;6177;52.402;9.800;2024-03-25T09:41:02;6.43;;;2.30;;
12228;SDS011;6177;52.402;9.800;2024-03-25T09:45:57;5.10;;;2.13;;
12228;SDS011;6177;52.402;9.800;2024-03-25T09:48:24;6.77;;;1.80;;
12228;SDS011;6177;52.402;9.800;2024-03-25T09:50:50;7.07;;;1.73;;
12228;SDS011;6177;52.402;9.800;2024-03-25T09:53:15;2.70;;;1.13;;
12228;SDS011;6177;52.402;9.800;2024-03-25T09:55:42;1.93;;;1.10;;
12228;SDS011;6177;52.402;9.800;2024-03-25T09:58:07;4.70;;;1.50;;
12228;SDS011;6177;52.402;9.800;2024-03-25T10:00:33;2.53;;;1.03;;
12228;SDS011;6177;52.402;9.800;2024-03-25T10:02:59;3.30;;;1.20;;
12228;SDS011;6177;52.402;9.800;2024-03-25T10:05:24;2.57;;;1.27;;
12228;SDS011;6177;52.402;9.800;2024-03-25T10:07:50;5.83;;;1.73;;
12228;SDS011;6177;52.402;9.800;2024-03-25T10:10:19;4.07;;;1.50;;
12228;SDS011;6177;52.402;9.800;2024-03-25T10:12:45;6.23;;;1.80;;
12228;SDS011;6177;52.402;9.800;2024-03-25T10:15:17;2.83;;;1.63;;
12228;SDS011;6177;52.402;9.800;2024-03-25T10:17:43;2.90;;;1.30;;
12228;SDS011;6177;52.402;9.800;2024-03-25T10:20:15;2.77;;;1.60;;
12228;SDS011;6177;52.402;9.800;2024-03-25T10:22:44;2.93;;;1.30;;
12228;SDS011;6177;52.402;9.800;2024-03-25T10:27:53;5.20;;;1.53;;
12228;SDS011;6177;52.402;9.800;2024-03-25T10:30:22;3.27;;;1.40;;
12228;SDS011;6177;52.402;9.800;2024-03-25T10:33:00;2.63;;;1.03;;
12228;SDS011;6177;52.402;9.800;2024-03-25T10:35:27;2.27;;;1.10;;
12228;SDS011;6177;52.402;9.800;2024-03-25T10:37:57;3.13;;;1.37;;
12228;SDS011;6177;52.402;9.800;2024-03-25T10:40:26;3.77;;;1.27;;
12228;SDS011;6177;52.402;9.800;2024-03-25T10:43:04;5.67;;;2.07;;
12228;SDS011;6177;52.402;9.800;2024-03-25T10:45:51;4.20;;;1.50;;
12228;SDS011;6177;52.402;9.800;2024-03-25T10:48:26;5.03;;;1.97;;
12228;SDS011;6177;52.402;9.800;2024-03-25T10:50:54;2.87;;;1.07;;
12228;SDS011;6177;52.402;9.800;2024-03-25T10:53:20;5.60;;;1.67;;
12228;SDS011;6177;52.402;9.800;2024-03-25T10:55:49;3.33;;;1.37;;
12228;SDS011;6177;52.402;9.800;2024-03-25T10:58:16;6.13;;;1.57;;
12228;SDS011;6177;52.402;9.800;2024-03-25T11:00:43;2.07;;;1.20;;
12228;SDS011;6177;52.402;9.800;2024-03-25T11:03:09;6.97;;;1.43;;
12228;SDS011;6177;52.402;9.800;2024-03-25T11:05:35;2.30;;;1.40;;
12228;SDS011;6177;52.402;9.800;2024-03-25T11:08:11;4.17;;;1.50;;
12228;SDS011;6177;52.402;9.800;2024-03-25T11:10:43;2.10;;;1.33;;
12228;SDS011;6177;52.402;9.800;2024-03-25T11:13:11;2.70;;;1.20;;
12228;SDS011;6177;52.402;9.800;2024-03-25T11:15:37;6.00;;;1.67;;
12228;SDS011;6177;52.402;9.800;2024-03-25T11:18:12;5.47;;;1.60;;
12228;SDS011;6177;52.402;9.800;2024-03-25T11:20:41;4.73;;;1.60;;
12228;SDS011;6177;52.402;9.800;2024-03-25T11:23:13;3.77;;;1.53;;
12228;SDS011;6177;52.402;9.800;2024-03-25T11:25:40;3.17;;;1.30;;
12228;SDS011;6177;52.402;9.800;2024-03-25T11:28:06;2.67;;;1.30;;
12228;SDS011;6177;52.402;9.800;2024-03-25T11:30:33;3.90;;;1.47;;
12228;SDS011;6177;52.402;9.800;2024-03-25T11:33:01;5.07;;;1.70;;
12228;SDS011;6177;52.402;9.800;2024-03-25T11:35:27;3.03;;;1.03;;
12228;SDS011;6177;52.402;9.800;2024-03-25T11:37:53;1.90;;;1.07;;
12228;SDS011;6177;52.402;9.800;2024-03-25T11:40:19;3.13;;;1.50;;
12228;SDS011;6177;52.402;9.800;2024-03-25T11:42:45;3.73;;;1.50;;
12228;SDS011;6177;52.402;9.800;2024-03-25T11:45:14;4.57;;;1.53;;
12228;SDS011;6177;52.402;9.800;2024-03-25T11:47:44;4.63;;;1.97;;
12228;SDS011;6177;52.402;9.800;2024-03-25T11:50:14;4.57;;;1.53;;
12228;SDS011;6177;52.402;9.800;2024-03-25T11:52:44;4.00;;;1.60;;
12228;SDS011;6177;52.402;9.800;2024-03-25T11:55:09;4.53;;;1.97;;
12228;SDS011;6177;52.402;9.800;2024-03-25T11:57:37;3.53;;;1.67;;
12228;SDS011;6177;52.402;9.800;2024-03-25T12:00:03;3.63;;;2.00;;
12228;SDS011;6177;52.402;9.800;2024-03-25T12:02:44;4.37;;;1.87;;
12228;SDS011;6177;52.402;9.800;2024-03-25T12:05:12;4.10;;;1.77;;
12228;SDS011;6177;52.402;9.800;2024-03-25T12:07:38;2.47;;;1.07;;
12228;SDS011;6177;52.402;9.800;2024-03-25T12:10:04;3.37;;;0.90;;
12228;SDS011;6177;52.402;9.800;2024-03-25T12:12:48;2.63;;;1.47;;
12228;SDS011;6177;52.402;9.800;2024-03-25T12:15:19;3.17;;;1.30;;
12228;SDS011;6177;52.402;9.800;2024-03-25T12:17:45;6.07;;;1.50;;
12228;SDS011;6177;52.402;9.800;2024-03-25T12:20:11;1.63;;;1.20;;
12228;SDS011;6177;52.402;9.800;2024-03-25T12:22:37;3.37;;;1.33;;
12228;SDS011;6177;52.402;9.800;2024-03-25T12:25:04;1.73;;;1.13;;
12228;SDS011;6177;52.402;9.800;2024-03-25T12:27:36;4.43;;;1.63;;
12228;SDS011;6177;52.402;9.800;2024-03-25T12:30:07;2.60;;;1.00;;
12228;SDS011;6177;52.402;9.800;2024-03-25T12:32:41;2.50;;;0.93;;
12228;SDS011;6177;52.402;9.800;2024-03-25T12:35:08;3.83;;;1.23;;
12228;SDS011;6177;52.402;9.800;2024-03-25T12:37:42;2.00;;;1.23;;
12228;SDS011;6177;52.402;9.800;2024-03-25T12:40:09;3.73;;;1.30;;
12228;SDS011;6177;52.402;9.800;2024-03-25T12:42:36;2.70;;;0.90;;
12228;SDS011;6177;52.402;9.800;2024-03-25T12:45:04;2.07;;;1.30;;
12228;SDS011;6177;52.402;9.800;2024-03-25T12:47:30;1.50;;;1.13;;
12228;SDS011;6177;52.402;9.800;2024-03-25T12:49:56;4.87;;;1.13;;
12228;SDS011;6177;52.402;9.800;2024-03-25T12:52:22;2.47;;;1.03;;
12228;SDS011;6177;52.402;9.800;2024-03-25T12:54:47;1.97;;;0.87;;
12228;SDS011;6177;52.402;9.800;2024-03-25T12:57:13;2.57;;;1.10;;
12228;SDS011;6177;52.402;9.800;2024-03-25T12:59:38;2.77;;;1.00;;
12228;SDS011;6177;52.402;9.800;2024-03-25T13:02:04;1.97;;;0.97;;
12228;SDS011;6177;52.402;9.800;2024-03-25T13:04:30;3.87;;;1.23;;
12228;SDS011;6177;52.402;9.800;2024-03-25T13:06:55;1.80;;;1.10;;
12228;SDS011;6177;52.402;9.800;2024-03-25T13:09:21;2.77;;;1.00;;
12228;SDS011;6177;52.402;9.800;2024-03-25T13:11:46;3.93;;;1.63;;
12228;SDS011;6177;52.402;9.800;2024-03-25T13:14:12;2.30;;;0.80;;
12228;SDS011;6177;52.402;9.800;2024-03-25T13:16:38;1.53;;;1.00;;
12228;SDS011;6177;52.402;9.800;2024-03-25T13:19:04;2.03;;;1.13;;
12228;SDS011;6177;52.402;9.800;2024-03-25T13:21:30;2.77;;;1.00;;
12228;SDS011;6177;52.402;9.800;2024-03-25T13:23:55;2.93;;;1.23;;
12228;SDS011;6177;52.402;9.800;2024-03-25T13:26:21;2.13;;;0.93;;
12228;SDS011;6177;52.402;9.800;2024-03-25T13:28:47;1.95;;;1.00;;
12228;SDS011;6177;52.402;9.800;2024-03-25T13:31:12;3.00;;;1.00;;
12228;SDS011;6177;52.402;9.800;2024-03-25T13:33:38;3.20;;;1.23;;
12228;SDS011;6177;52.402;9.800;2024-03-25T13:36:07;3.10;;;0.95;;
12228;SDS011;6177;52.402;9.800;2024-03-25T13:38:33;2.20;;;0.90;;
12228;SDS011;6177;52.402;9.800;2024-03-25T13:41:02;3.03;;;1.38;;
12228;SDS011;6177;52.402;9.800;2024-03-25T13:43:28;2.17;;;1.10;;
12228;SDS011;6177;52.402;9.800;2024-03-25T13:45:53;2.60;;;1.40;;
12228;SDS011;6177;52.402;9.800;2024-03-25T13:48:19;1.55;;;1.00;;
12228;SDS011;6177;52.402;9.800;2024-03-25T13:50:44;1.45;;;1.00;;
12228;SDS011;6177;52.402;9.800;2024-03-25T13:53:13;2.72;;;1.58;;
12228;SDS011;6177;52.402;9.800;2024-03-25T13:55:39;2.13;;;1.20;;
12228;SDS011;6177;52.402;9.800;2024-03-25T13:58:04;3.28;;;1.10;;
12228;SDS011;6177;52.402;9.800;2024-03-25T14:00:30;2.13;;;1.20;;
12228;SDS011;6177;52.402;9.800;2024-03-25T14:02:58;1.80;;;1.33;;
12228;SDS011;6177;52.402;9.800;2024-03-25T14:05:25;2.03;;;1.15;;
12228;SDS011;6177;52.402;9.800;2024-03-25T14:07:51;1.17;;;0.98;;
12228;SDS011;6177;52.402;9.800;2024-03-25T14:10:16;3.22;;;1.13;;
12228;SDS011;6177;52.402;9.800;2024-03-25T14:12:42;2.33;;;1.40;;
12228;SDS011;6177;52.402;9.800;2024-03-25T14:15:08;1.45;;;1.35;;
12228;SDS011;6177;52.402;9.800;2024-03-25T14:17:34;2.25;;;1.33;;
12228;SDS011;6177;52.402;9.800;2024-03-25T14:19:59;2.85;;;1.10;;
12228;SDS011;6177;52.402;9.800;2024-03-25T14:22:25;2.08;;;1.00;;
12228;SDS011;6177;52.402;9.800;2024-03-25T14:24:50;2.25;;;0.90;;
12228;SDS011;6177;52.402;9.800;2024-03-25T14:27:21;2.00;;;1.20;;
12228;SDS011;6177;52.402;9.800;2024-03-25T14:29:47;2.92;;;1.30;;
12228;SDS011;6177;52.402;9.800;2024-03-25T14:32:13;3.83;;;1.08;;
12228;SDS011;6177;52.402;9.800;2024-03-25T14:34:38;4.30;;;1.58;;
12228;SDS011;6177;52.402;9.800;2024-03-25T14:37:04;2.80;;;1.27;;
12228;SDS011;6177;52.402;9.800;2024-03-25T14:39:30;1.70;;;0.88;;
12228;SDS011;6177;52.402;9.800;2024-03-25T14:41:56;1.88;;;0.93;;
12228;SDS011;6177;52.402;9.800;2024-03-25T14:44:21;1.10;;;1.00;;
12228;SDS011;6177;52.402;9.800;2024-03-25T14:46:47;2.75;;;0.88;;
12228;SDS011;6177;52.402;9.800;2024-03-25T14:49:13;2.08;;;0.80;;
12228;SDS011;6177;52.402;9.800;2024-03-25T14:51:38;1.20;;;1.10;;
12228;SDS011;6177;52.402;9.800;2024-03-25T14:54:05;2.33;;;1.10;;
12228;SDS011;6177;52.402;9.800;2024-03-25T14:56:30;1.95;;;1.02;;
12228;SDS011;6177;52.402;9.800;2024-03-25T14:58:56;2.65;;;0.90;;
12228;SDS011;6177;52.402;9.800;2024-03-25T15:01:21;3.10;;;1.30;;